Time;durP1;ratioP1;P1;durP2;ratioP2;P2;SDS_P1;SDS_P2;PMS_P1;PMS_P2;Temp;Humidity;BMP_temperature;BMP_pressure;BME280_temperature;BME280_humidity;BME280_pressure;Samples;Min_cycle;Max_cycle;Signal;HPM_P1;HPM_P2
2021/06/03 00:00:57;;;;;;;14.10;10.90;;;17.10;84.10;;;;;;5053136;28;20492;-69
2021/06/03 00:03:24;;;;;;;14.87;13.30;;;17.00;84.10;;;;;;5052756;28;20456;-69
2021/06/03 00:05:52;;;;;;;15.57;13.53;;;17.00;84.20;;;;;;5052038;28;20049;-68
2021/06/03 00:08:20;;;;;;;15.23;13.47;;;16.90;84.30;;;;;;5052600;28;20049;-69
2021/06/03 00:10:53;;;;;;;17.87;13.50;;;16.90;84.70;;;;;;5052387;28;20520;-69
2021/06/03 00:13:21;;;;;;;15.20;13.23;;;16.90;84.70;;;;;;5051890;28;20416;-69
2021/06/03 00:15:47;;;;;;;15.13;13.57;;;16.90;84.80;;;;;;5052495;28;20060;-69
2021/06/03 00:18:13;;;;;;;16.07;14.43;;;16.90;84.90;;;;;;5052163;28;20049;-69
2021/06/03 00:20:38;;;;;;;17.83;14.13;;;16.90;85.00;;;;;;5051574;28;20064;-69
2021/06/03 00:23:04;;;;;;;14.87;13.47;;;16.80;85.90;;;;;;5052643;28;20052;-69
2021/06/03 00:25:31;;;;;;;16.23;14.53;;;16.80;85.10;;;;;;5050837;28;20061;-69
2021/06/03 00:27:57;;;;;;;17.27;15.43;;;16.70;85.20;;;;;;5052188;28;20165;-68
2021/06/03 00:30:23;;;;;;;15.50;13.90;;;16.70;85.20;;;;;;5051873;28;20195;-69
2021/06/03 00:32:49;;;;;;;18.33;12.90;;;16.70;85.40;;;;;;5051628;28;20052;-69
2021/06/03 00:35:15;;;;;;;15.60;14.00;;;16.70;85.60;;;;;;5051682;28;20178;-69
2021/06/03 00:37:40;;;;;;;15.80;13.63;;;16.70;85.90;;;;;;5052173;28;20081;-69
2021/06/03 00:40:11;;;;;;;16.53;14.77;;;16.60;85.80;;;;;;5051568;28;20163;-69
2021/06/03 00:42:37;;;;;;;18.10;15.60;;;16.60;86.00;;;;;;5051797;28;20102;-68
2021/06/03 00:45:05;;;;;;;16.50;14.80;;;16.60;86.00;;;;;;5051581;28;20141;-68
2021/06/03 00:47:31;;;;;;;15.80;14.20;;;16.60;86.10;;;;;;5050824;28;20139;-68
2021/06/03 00:49:57;;;;;;;17.57;15.77;;;16.50;86.00;;;;;;5051778;28;20049;-69
2021/06/03 00:52:23;;;;;;;17.13;15.27;;;16.50;86.00;;;;;;5051674;28;20445;-69
2021/06/03 00:54:49;;;;;;;19.40;17.00;;;16.50;86.20;;;;;;5050946;28;20076;-68
2021/06/03 00:57:15;;;;;;;18.43;16.53;;;16.50;86.50;;;;;;5051598;28;20056;-69
2021/06/03 00:59:40;;;;;;;22.20;17.50;;;16.40;86.70;;;;;;5051579;28;20056;-68
2021/06/03 01:02:09;;;;;;;17.73;15.97;;;16.40;86.90;;;;;;5051012;28;20041;-68
2021/06/03 01:04:35;;;;;;;18.77;15.70;;;16.40;87.20;;;;;;5051247;28;20050;-69
2021/06/03 01:07:01;;;;;;;17.53;15.50;;;16.40;87.60;;;;;;5051854;28;20048;-68
2021/06/03 01:09:40;;;;;;;19.27;16.07;;;16.40;87.60;;;;;;5050238;28;20049;-69
2021/06/03 01:12:18;;;;;;;19.73;16.60;;;16.40;87.50;;;;;;5051724;28;20059;-68
2021/06/03 01:14:52;;;;;;;17.07;15.20;;;16.40;87.40;;;;;;5050485;28;20056;-69
2021/06/03 01:17:20;;;;;;;17.77;15.47;;;16.40;87.40;;;;;;5051389;28;20102;-68
2021/06/03 01:19:48;;;;;;;17.63;15.80;;;16.50;87.30;;;;;;5051307;28;20159;-68
2021/06/03 01:22:22;;;;;;;18.30;16.43;;;16.50;87.20;;;;;;5050383;28;20057;-69
2021/06/03 01:24:56;;;;;;;16.83;14.80;;;16.50;87.20;;;;;;5050965;28;20053;-68
2021/06/03 01:27:26;;;;;;;16.43;14.20;;;16.50;87.10;;;;;;5051240;28;20137;-68
2021/06/03 01:30:06;;;;;;;17.77;15.80;;;16.50;87.00;;;;;;5051074;28;20111;-68
2021/06/03 01:32:42;;;;;;;17.83;16.03;;;16.50;87.10;;;;;;5050877;28;20163;-68
2021/06/03 01:35:12;;;;;;;17.83;15.73;;;16.50;87.30;;;;;;5051393;28;20049;-68
2021/06/03 01:37:40;;;;;;;17.40;15.50;;;16.40;87.40;;;;;;5049838;28;20053;-68
2021/06/03 01:40:08;;;;;;;19.03;16.83;;;16.40;87.50;;;;;;5051124;28;20064;-68
2021/06/03 01:42:35;;;;;;;17.27;15.67;;;16.40;87.80;;;;;;5050925;28;20045;-68
2021/06/03 01:45:04;;;;;;;18.57;16.40;;;16.30;88.00;;;;;;5050358;28;20128;-68
2021/06/03 01:47:31;;;;;;;19.17;17.17;;;16.30;88.20;;;;;;5050915;28;20103;-70
2021/06/03 01:49:58;;;;;;;16.93;15.33;;;16.30;88.10;;;;;;5050222;28;20103;-68
2021/06/03 01:52:24;;;;;;;18.03;16.13;;;16.20;88.20;;;;;;5050937;28;20072;-68
2021/06/03 01:54:51;;;;;;;19.17;17.20;;;16.20;88.30;;;;;;5051259;28;20044;-68
2021/06/03 01:57:19;;;;;;;19.20;16.67;;;16.20;88.40;;;;;;5050167;28;20061;-68
2021/06/03 01:59:46;;;;;;;18.67;16.53;;;16.20;88.50;;;;;;5051005;28;20412;-68
2021/06/03 02:02:11;;;;;;;17.17;15.47;;;16.10;88.70;;;;;;5050993;28;20401;-68
2021/06/03 02:04:37;;;;;;;17.07;15.33;;;16.10;88.80;;;;;;5049722;28;20102;-68
2021/06/03 02:07:03;;;;;;;17.73;15.83;;;16.10;88.80;;;;;;5051007;28;20049;-68
2021/06/03 02:09:29;;;;;;;17.70;15.90;;;16.10;88.50;;;;;;5050798;28;20113;-68
2021/06/03 02:11:56;;;;;;;16.40;14.90;;;16.20;88.40;;;;;;5050267;28;20045;-68
2021/06/03 02:14:25;;;;;;;17.60;15.70;;;16.10;88.10;;;;;;5050730;28;20049;-68
2021/06/03 02:17:08;;;;;;;17.30;15.43;;;16.20;88.00;;;;;;5050359;28;20060;-68
2021/06/03 02:19:52;;;;;;;16.43;14.73;;;16.20;87.80;;;;;;5050097;28;20076;-68
2021/06/03 02:22:20;;;;;;;16.90;15.17;;;16.20;87.80;;;;;;5050357;28;20057;-68
2021/06/03 02:24:47;;;;;;;17.60;14.07;;;16.10;87.90;;;;;;5050573;28;20057;-68
2021/06/03 02:27:14;;;;;;;16.67;15.10;;;16.10;87.90;;;;;;5049515;28;20429;-68
2021/06/03 02:29:41;;;;;;;16.27;14.67;;;16.00;88.10;;;;;;5050586;28;20052;-68
2021/06/03 02:32:07;;;;;;;15.97;14.37;;;16.00;88.10;;;;;;5050221;28;20136;-68
2021/06/03 02:34:33;;;;;;;14.30;12.93;;;16.00;87.80;;;;;;5050387;28;20561;-68
2021/06/03 02:36:59;;;;;;;17.33;15.67;;;16.00;87.40;;;;;;5050804;28;20195;-68
2021/06/03 02:39:24;;;;;;;17.07;14.63;;;16.00;87.40;;;;;;5049712;28;20045;-68
2021/06/03 02:41:50;;;;;;;15.27;13.73;;;16.00;87.40;;;;;;5050662;28;20171;-68
2021/06/03 02:44:16;;;;;;;16.37;14.50;;;16.00;87.70;;;;;;5049908;28;20451;-68
2021/06/03 02:46:42;;;;;;;13.50;12.20;;;16.00;87.90;;;;;;5050045;28;20152;-68
2021/06/03 02:49:08;;;;;;;14.67;12.87;;;16.00;87.70;;;;;;5050661;28;20193;-68
2021/06/03 02:51:34;;;;;;;16.53;14.43;;;16.00;87.30;;;;;;5053626;28;20063;-68
2021/06/03 02:54:00;;;;;;;15.63;13.77;;;16.10;87.10;;;;;;5053447;28;20041;-68
2021/06/03 02:56:26;;;;;;;15.67;14.17;;;16.10;87.00;;;;;;5053353;28;20047;-68
2021/06/03 02:58:52;;;;;;;16.10;14.50;;;16.00;86.90;;;;;;5054014;28;20053;-69
2021/06/03 03:01:18;;;;;;;15.87;13.23;;;16.00;87.20;;;;;;5053119;28;20419;-68
2021/06/03 03:03:43;;;;;;;15.30;13.83;;;16.00;87.30;;;;;;5054375;28;20422;-68
2021/06/03 03:06:09;;;;;;;15.13;13.53;;;16.00;87.00;;;;;;5053775;28;20555;-68
2021/06/03 03:08:35;;;;;;;14.50;12.90;;;16.00;86.80;;;;;;5053114;28;20049;-68
2021/06/03 03:11:01;;;;;;;13.40;12.10;;;16.10;86.40;;;;;;5053922;28;20044;-68
2021/06/03 03:13:27;;;;;;;14.67;12.73;;;16.10;86.00;;;;;;5053546;28;20179;-68
2021/06/03 03:15:53;;;;;;;13.80;12.30;;;16.10;85.70;;;;;;5053372;28;20057;-68
2021/06/03 03:18:19;;;;;;;15.90;14.30;;;16.10;85.50;;;;;;5053438;28;20056;-68
2021/06/03 03:20:45;;;;;;;14.00;12.60;;;16.20;85.50;;;;;;5053714;28;20045;-68
2021/06/03 03:23:11;;;;;;;12.93;11.60;;;16.20;85.50;;;;;;5053076;28;20045;-68
2021/06/03 03:25:38;;;;;;;12.87;11.57;;;16.20;85.30;;;;;;5053143;28;20053;-68
2021/06/03 03:28:05;;;;;;;12.40;10.80;;;16.20;85.20;;;;;;5053546;28;20108;-68
2021/06/03 03:30:31;;;;;;;13.27;11.77;;;16.20;85.50;;;;;;5052498;28;20461;-68
2021/06/03 03:32:57;;;;;;;11.80;10.70;;;16.20;85.80;;;;;;5053726;28;20044;-68
2021/06/03 03:35:23;;;;;;;15.20;11.30;;;16.10;85.60;;;;;;5052562;28;20053;-68
2021/06/03 03:37:50;;;;;;;12.33;11.10;;;16.10;85.40;;;;;;5053665;28;20071;-68
2021/06/03 03:40:19;;;;;;;11.43;10.30;;;16.20;85.30;;;;;;5053182;28;20079;-68
2021/06/03 03:42:45;;;;;;;12.00;10.80;;;16.20;84.90;;;;;;5052655;28;20492;-68
2021/06/03 03:45:13;;;;;;;12.23;10.77;;;16.30;84.30;;;;;;5053407;28;20060;-68
2021/06/03 03:47:40;;;;;;;11.93;10.73;;;16.40;84.10;;;;;;5053347;28;20049;-68
2021/06/03 03:50:08;;;;;;;11.73;10.63;;;16.40;83.90;;;;;;5052620;28;20095;-68
2021/06/03 03:52:33;;;;;;;12.67;9.50;;;16.40;83.80;;;;;;5052866;28;20381;-68
2021/06/03 03:55:00;;;;;;;11.90;9.70;;;16.50;83.10;;;;;;5053085;28;20053;-68
2021/06/03 03:57:26;;;;;;;10.40;9.40;;;16.60;82.50;;;;;;5052312;28;20057;-68
2021/06/03 03:59:52;;;;;;;11.17;9.60;;;16.70;81.70;;;;;;5053267;28;20137;-68
2021/06/03 04:02:18;;;;;;;9.63;8.63;;;16.90;80.90;;;;;;5051889;28;20468;-69
2021/06/03 04:04:43;;;;;;;9.87;8.57;;;17.00;80.20;;;;;;5052203;28;20492;-69
2021/06/03 04:07:13;;;;;;;10.83;8.70;;;17.20;79.60;;;;;;5053176;28;20125;-68
2021/06/03 04:09:38;;;;;;;9.77;8.60;;;17.30;78.90;;;;;;5052945;28;20120;-69
2021/06/03 04:12:04;;;;;;;9.20;8.40;;;17.40;78.30;;;;;;5052487;28;20128;-68
2021/06/03 04:14:30;;;;;;;10.47;8.57;;;17.50;78.00;;;;;;5052441;28;20041;-69
2021/06/03 04:16:56;;;;;;;10.07;7.83;;;17.60;77.50;;;;;;5052662;28;20048;-69
2021/06/03 04:19:22;;;;;;;10.80;7.87;;;17.70;77.20;;;;;;5051632;28;20045;-69
2021/06/03 04:21:50;;;;;;;9.43;7.43;;;17.70;76.80;;;;;;5052813;28;20060;-69
2021/06/03 04:24:16;;;;;;;9.53;7.93;;;17.80;76.60;;;;;;5051974;28;20056;-69
2021/06/03 04:26:42;;;;;;;9.30;7.40;;;17.90;76.30;;;;;;5050971;28;20060;-68
2021/06/03 04:29:08;;;;;;;8.27;7.47;;;17.90;76.00;;;;;;5052497;28;20119;-68
2021/06/03 04:31:37;;;;;;;10.70;8.07;;;17.90;75.70;;;;;;5051358;28;20165;-69
2021/06/03 04:34:04;;;;;;;8.30;7.40;;;18.00;75.70;;;;;;5052316;28;20156;-69
2021/06/03 04:36:29;;;;;;;8.97;8.03;;;18.10;75.40;;;;;;5051863;28;20175;-69
2021/06/03 04:38:55;;;;;;;10.23;7.77;;;18.00;75.10;;;;;;5051370;28;20496;-69
2021/06/03 04:41:20;;;;;;;9.87;7.30;;;18.10;75.10;;;;;;5052121;28;20049;-69
2021/06/03 04:43:49;;;;;;;9.13;6.90;;;18.10;75.00;;;;;;5052444;28;20128;-68
2021/06/03 04:46:15;;;;;;;10.57;8.03;;;18.10;75.00;;;;;;5051214;28;20055;-69
2021/06/03 04:48:41;;;;;;;8.10;6.77;;;18.20;75.00;;;;;;5052038;28;20049;-69
2021/06/03 04:51:07;;;;;;;8.87;6.50;;;18.20;75.00;;;;;;5051920;28;20508;-69
2021/06/03 04:53:34;;;;;;;8.30;7.13;;;18.20;75.00;;;;;;5050939;28;20404;-69
2021/06/03 04:56:00;;;;;;;8.90;7.60;;;18.20;74.90;;;;;;5052175;28;20119;-68
2021/06/03 04:58:27;;;;;;;8.63;6.47;;;18.20;75.30;;;;;;5051755;28;20148;-69
2021/06/03 05:00:54;;;;;;;9.43;6.57;;;18.20;76.00;;;;;;5051198;28;20045;-68
2021/06/03 05:03:20;;;;;;;6.40;5.80;;;18.20;76.50;;;;;;5051533;28;20053;-69
2021/06/03 05:05:46;;;;;;;9.03;6.13;;;18.10;77.00;;;;;;5051705;28;20108;-68
2021/06/03 05:08:18;;;;;;;6.83;5.97;;;18.10;77.30;;;;;;5050855;28;20052;-69
2021/06/03 05:10:44;;;;;;;6.83;6.23;;;18.00;77.50;;;;;;5051831;28;20139;-69
2021/06/03 05:13:10;;;;;;;7.03;5.83;;;18.00;77.80;;;;;;5051671;28;20095;-69
2021/06/03 05:15:35;;;;;;;7.00;6.13;;;17.90;77.90;;;;;;5050637;28;20482;-68
2021/06/03 05:18:01;;;;;;;6.67;5.30;;;17.90;78.20;;;;;;5051572;28;20178;-69
2021/06/03 05:20:29;;;;;;;7.97;6.23;;;17.90;79.20;;;;;;5051086;28;20110;-69
2021/06/03 05:22:58;;;;;;;9.50;6.10;;;18.00;78.20;;;;;;5050937;28;20068;-68
2021/06/03 05:25:26;;;;;;;7.77;6.33;;;18.00;78.40;;;;;;5050901;28;20071;-68
2021/06/03 05:27:52;;;;;;;7.70;6.27;;;18.00;78.80;;;;;;5050672;28;20072;-69
2021/06/03 05:30:19;;;;;;;6.63;6.00;;;18.10;78.80;;;;;;5051160;28;20048;-69
2021/06/03 05:32:45;;;;;;;7.20;6.50;;;18.10;78.80;;;;;;5051252;28;20428;-69
2021/06/03 05:35:13;;;;;;;8.50;6.60;;;18.10;78.90;;;;;;5050447;28;20370;-69
2021/06/03 05:37:43;;;;;;;8.63;6.60;;;18.10;78.90;;;;;;5051269;28;20049;-69
2021/06/03 05:40:10;;;;;;;7.27;5.97;;;18.20;78.90;;;;;;5051170;28;20045;-69
2021/06/03 05:42:36;;;;;;;6.33;5.60;;;18.20;78.70;;;;;;5050103;28;20091;-69
2021/06/03 05:45:04;;;;;;;7.83;5.57;;;18.30;78.50;;;;;;5051024;28;20142;-68
2021/06/03 05:47:29;;;;;;;7.47;5.17;;;18.30;78.80;;;;;;5050877;28;20053;-68
2021/06/03 05:49:56;;;;;;;6.20;5.50;;;18.40;78.70;;;;;;5050675;28;20060;-68
2021/06/03 05:52:21;;;;;;;11.53;5.70;;;18.40;78.60;;;;;;5050961;28;20057;-68
2021/06/03 05:54:47;;;;;;;8.50;6.50;;;18.50;78.40;;;;;;5050581;28;20406;-68
2021/06/03 05:57:13;;;;;;;9.67;5.60;;;18.60;78.30;;;;;;5050146;28;20055;-68
2021/06/03 05:59:38;;;;;;;9.27;5.13;;;18.60;78.30;;;;;;5050865;28;20048;-68
2021/06/03 06:02:05;;;;;;;6.13;5.33;;;18.70;78.30;;;;;;5050944;28;20120;-68
2021/06/03 06:07:18;;;;;;;6.20;4.63;;;18.70;78.20;;;;;;5050680;28;20474;-68
2021/06/03 06:09:43;;;;;;;7.83;5.50;;;18.80;78.10;;;;;;5050996;28;20048;-68
2021/06/03 06:12:09;;;;;;;10.00;6.60;;;18.90;77.90;;;;;;5050137;28;20053;-69
2021/06/03 06:14:35;;;;;;;10.03;5.87;;;19.00;77.40;;;;;;5050416;28;20186;-69
2021/06/03 06:17:00;;;;;;;9.63;6.50;;;19.10;76.90;;;;;;5049884;28;20059;-69
2021/06/03 06:19:30;;;;;;;6.73;6.07;;;19.20;76.30;;;;;;5050405;28;20041;-69
2021/06/03 06:21:57;;;;;;;8.43;6.67;;;19.30;75.70;;;;;;5050800;28;20071;-68
2021/06/03 06:24:22;;;;;;;7.43;6.63;;;19.40;75.00;;;;;;5050197;28;20044;-68
2021/06/03 06:26:48;;;;;;;8.80;6.70;;;19.50;74.70;;;;;;5054699;28;20068;-68
2021/06/03 06:29:14;;;;;;;8.30;6.47;;;19.50;74.30;;;;;;5054522;28;20127;-69
2021/06/03 06:31:43;;;;;;;7.07;6.30;;;19.60;73.90;;;;;;5054202;28;20073;-69
2021/06/03 06:34:11;;;;;;;8.13;6.87;;;19.70;73.90;;;;;;5054838;28;20069;-69
2021/06/03 06:36:36;;;;;;;8.30;6.33;;;19.70;73.80;;;;;;5054576;28;20074;-69
2021/06/03 06:39:04;;;;;;;7.90;6.00;;;19.90;73.80;;;;;;5054090;28;20083;-69
2021/06/03 06:41:30;;;;;;;7.87;6.33;;;19.90;73.40;;;;;;5053502;28;20483;-69
2021/06/03 06:43:56;;;;;;;9.93;6.60;;;20.10;73.30;;;;;;5054112;28;20059;-70
2021/06/03 06:46:22;;;;;;;7.37;6.63;;;20.10;73.20;;;;;;5053595;28;20143;-69
2021/06/03 06:48:47;;;;;;;7.57;6.23;;;20.20;72.90;;;;;;5054172;28;20077;-69
2021/06/03 06:51:14;;;;;;;8.37;6.80;;;20.40;72.50;;;;;;5053615;28;20057;-70
2021/06/03 06:53:39;;;;;;;7.00;6.30;;;20.50;72.40;;;;;;5052644;28;20478;-68
2021/06/03 06:56:06;;;;;;;8.20;6.80;;;20.60;72.00;;;;;;5053627;28;20045;-69
2021/06/03 06:58:32;;;;;;;7.93;6.43;;;20.70;71.70;;;;;;5053099;28;20524;-69
2021/06/03 07:01:00;;;;;;;7.23;6.17;;;20.80;71.50;;;;;;5052750;28;20091;-69
2021/06/03 07:03:26;;;;;;;7.57;6.87;;;20.90;71.70;;;;;;5053256;28;20140;-69
2021/06/03 07:05:51;;;;;;;8.47;6.73;;;21.00;71.60;;;;;;5053349;28;20127;-69
2021/06/03 07:08:17;;;;;;;10.13;7.23;;;21.10;71.20;;;;;;5052738;28;20056;-69
2021/06/03 07:10:44;;;;;;;8.37;6.43;;;21.10;70.90;;;;;;5053676;28;20060;-69
2021/06/03 07:13:09;;;;;;;7.80;7.10;;;21.20;70.80;;;;;;5053770;28;20485;-69
2021/06/03 07:15:35;;;;;;;7.67;6.60;;;21.20;70.40;;;;;;5051947;28;20077;-70
2021/06/03 07:18:01;;;;;;;7.83;6.40;;;21.20;70.70;;;;;;5053191;28;20049;-71
2021/06/03 07:20:26;;;;;;;8.40;6.83;;;21.30;70.60;;;;;;5051783;28;20112;-69
2021/06/03 07:23:00;;;;;;;11.37;8.07;;;21.40;71.10;;;;;;5053183;28;20040;-69
2021/06/03 07:25:26;;;;;;;11.70;7.17;;;21.40;70.60;;;;;;5050132;28;20053;-69
2021/06/03 07:27:52;;;;;;;7.70;6.40;;;21.40;70.90;;;;;;5052467;28;20045;-69
2021/06/03 07:30:23;;;;;;;9.27;6.90;;;21.50;71.00;;;;;;5053219;28;20083;-70
2021/06/03 07:33:09;;;;;;;9.80;7.07;;;21.50;70.80;;;;;;5038427;28;20048;-70
2021/06/03 07:35:37;;;;;;;10.30;8.53;;;21.60;70.60;;;;;;5051163;28;20063;-69
2021/06/03 07:38:04;;;;;;;11.37;6.87;;;21.60;70.00;;;;;;5053061;28;20049;-69
2021/06/03 07:40:36;;;;;;;8.32;6.60;;;21.70;70.30;;;;;;5052769;28;20041;-68
2021/06/03 07:43:04;;;;;;;10.07;7.63;;;21.70;70.60;;;;;;5052319;28;20045;-68
2021/06/03 07:45:31;;;;;;;8.20;7.40;;;21.80;70.60;;;;;;5052688;28;20073;-69
2021/06/03 07:47:57;;;;;;;8.77;7.03;;;21.90;70.20;;;;;;5053171;28;20045;-68
2021/06/03 07:50:28;;;;;;;10.07;7.23;;;22.00;70.20;;;;;;5051690;28;20152;-70
2021/06/03 07:52:55;;;;;;;8.10;7.23;;;22.10;70.00;;;;;;5053780;28;20148;-68
2021/06/03 07:55:21;;;;;;;12.27;7.07;;;22.10;70.20;;;;;;5053560;28;20049;-69
2021/06/03 07:57:51;;;;;;;11.33;7.83;;;22.20;70.10;;;;;;5052771;28;20041;-67
2021/06/03 08:00:19;;;;;;;7.63;6.50;;;22.20;69.70;;;;;;5052740;28;20091;-70
2021/06/03 08:02:45;;;;;;;8.63;7.10;;;22.20;69.50;;;;;;5052253;28;20127;-69
2021/06/03 08:05:21;;;;;;;8.67;7.77;;;22.30;69.50;;;;;;5053422;28;20067;-69
2021/06/03 08:07:48;;;;;;;10.20;8.47;;;22.40;69.10;;;;;;5053343;28;20473;-69
2021/06/03 08:10:18;;;;;;;9.33;7.73;;;22.40;69.00;;;;;;5051905;28;20060;-69
2021/06/03 08:12:49;;;;;;;10.75;8.07;;;22.40;68.90;;;;;;5053306;28;20107;-69
2021/06/03 08:15:16;;;;;;;8.77;7.63;;;22.50;68.90;;;;;;5052620;28;20073;-70
2021/06/03 08:17:50;;;;;;;10.53;8.23;;;22.50;68.90;;;;;;5052204;28;20068;-70
2021/06/03 08:20:20;;;;;;;11.97;9.10;;;22.50;69.10;;;;;;5051511;28;20153;-70
2021/06/03 08:22:46;;;;;;;9.77;7.90;;;22.50;69.50;;;;;;5052124;28;20045;-69
2021/06/03 08:25:14;;;;;;;10.70;9.07;;;22.60;68.50;;;;;;5052072;28;20123;-69
2021/06/03 08:27:40;;;;;;;10.17;8.80;;;22.50;68.40;;;;;;5050063;28;20037;-72
2021/06/03 08:30:07;;;;;;;10.93;8.70;;;22.50;69.50;;;;;;5050384;28;20063;-72
2021/06/03 08:32:43;;;;;;;9.97;8.70;;;22.40;68.60;;;;;;5045574;28;20068;-73
2021/06/03 08:35:15;;;;;;;9.97;9.00;;;22.40;69.10;;;;;;5044972;28;20075;-74
2021/06/03 08:38:04;;;;;;;11.45;9.75;;;22.40;69.00;;;;;;5036732;28;20057;-75
2021/06/03 08:40:42;;;;;;;11.43;10.23;;;22.40;68.50;;;;;;5051550;28;20194;-77
2021/06/03 08:43:08;;;;;;;11.37;10.17;;;22.40;68.30;;;;;;5051901;28;20055;-76
2021/06/03 08:45:37;;;;;;;11.03;10.03;;;22.40;68.30;;;;;;5050726;28;20049;-75
2021/06/03 08:48:03;;;;;;;12.33;10.23;;;22.40;68.20;;;;;;5051531;28;20045;-76
2021/06/03 08:50:32;;;;;;;11.63;10.23;;;22.40;68.00;;;;;;5051566;28;20044;-76
2021/06/03 08:52:59;;;;;;;11.27;10.17;;;22.50;67.90;;;;;;5051156;28;20076;-75
2021/06/03 08:58:12;;;;;;;13.00;10.20;;;22.80;68.30;;;;;;5051754;28;20041;-74
2021/06/03 09:00:39;;;;;;;11.73;10.63;;;22.90;68.10;;;;;;5051186;28;20049;-72
2021/06/03 09:03:05;;;;;;;12.25;9.95;;;22.90;67.50;;;;;;5051992;28;20091;-75
2021/06/03 09:05:31;;;;;;;11.52;10.27;;;23.00;67.30;;;;;;5051129;28;20562;-76
2021/06/03 09:07:57;;;;;;;12.43;9.75;;;23.10;67.30;;;;;;5051019;28;20120;-74
2021/06/03 09:10:35;;;;;;;13.63;11.27;;;23.20;67.50;;;;;;5051888;28;20055;-74
2021/06/03 09:13:25;;;;;;;13.65;11.38;;;23.30;68.10;;;;;;5050762;28;20527;-74
2021/06/03 09:15:56;;;;;;;13.07;11.77;;;23.40;67.20;;;;;;5051349;28;20353;-74
2021/06/03 09:18:35;;;;;;;12.55;11.32;;;23.40;67.00;;;;;;5051308;28;20045;-74
2021/06/03 09:21:07;;;;;;;13.50;12.13;;;23.40;66.70;;;;;;5050789;28;20052;-72
2021/06/03 09:23:33;;;;;;;12.98;11.48;;;23.50;66.30;;;;;;5051154;28;20052;-74
2021/06/03 09:26:06;;;;;;;16.38;11.93;;;23.60;66.20;;;;;;5051043;28;20119;-73
2021/06/03 09:28:34;;;;;;;12.25;10.68;;;23.70;65.90;;;;;;5050409;28;20072;-74
2021/06/03 09:31:09;;;;;;;13.15;10.70;;;23.90;66.00;;;;;;5051131;28;20527;-74
2021/06/03 09:33:37;;;;;;;12.55;11.43;;;24.10;65.60;;;;;;5051108;28;20433;-74
2021/06/03 09:36:04;;;;;;;14.75;11.05;;;24.30;65.00;;;;;;5050604;28;20118;-75
2021/06/03 09:38:30;;;;;;;12.80;10.68;;;24.50;64.10;;;;;;5050954;28;20110;-74
2021/06/03 09:40:55;;;;;;;11.52;10.20;;;24.80;63.40;;;;;;5032512;28;20053;-74
2021/06/03 09:43:23;;;;;;;11.20;9.90;;;25.00;62.20;;;;;;5051160;28;20041;-74
2021/06/03 09:45:57;;;;;;;12.00;10.90;;;25.20;61.80;;;;;;5051139;28;20071;-74
2021/06/03 09:48:39;;;;;;;10.48;9.23;;;25.30;61.30;;;;;;5050273;28;20125;-74
2021/06/03 09:51:25;;;;;;;12.82;9.40;;;25.30;61.20;;;;;;5051290;28;20044;-75
2021/06/03 09:53:54;;;;;;;9.68;8.43;;;25.40;60.80;;;;;;5051062;28;20060;-75
2021/06/03 09:56:42;;;;;;;11.43;10.18;;;25.60;60.50;;;;;;5050308;28;20057;-74
2021/06/03 09:59:15;;;;;;;12.77;9.63;;;25.70;59.30;;;;;;5049499;28;20409;-74
2021/06/03 10:02:02;;;;;;;10.98;8.82;;;25.70;59.20;;;;;;5050742;28;20045;-75
2021/06/03 10:04:40;;;;;;;10.70;9.65;;;25.60;59.70;;;;;;5050571;28;20075;-73
2021/06/03 10:07:10;;;;;;;10.98;9.88;;;25.60;59.40;;;;;;5051122;28;20048;-74
2021/06/03 10:09:36;;;;;;;12.00;9.85;;;25.70;59.40;;;;;;5050349;28;20493;-76
2021/06/03 10:12:04;;;;;;;10.38;9.15;;;25.80;59.10;;;;;;5051097;28;20079;-74
2021/06/03 10:14:29;;;;;;;10.82;9.63;;;26.00;59.40;;;;;;5050821;28;20045;-75
2021/06/03 10:16:55;;;;;;;9.60;8.65;;;26.10;58.30;;;;;;5050342;28;20136;-76
2021/06/03 10:19:28;;;;;;;12.43;9.02;;;26.20;58.20;;;;;;5050359;28;20534;-74
2021/06/03 10:22:14;;;;;;;11.82;8.90;;;26.30;57.70;;;;;;5050468;28;20045;-75
2021/06/03 10:24:47;;;;;;;11.43;9.27;;;26.50;58.20;;;;;;5049025;28;20157;-75
2021/06/03 10:27:13;;;;;;;10.85;9.75;;;26.50;57.50;;;;;;5050093;28;20049;-75
2021/06/03 10:29:39;;;;;;;8.50;7.57;;;26.50;56.50;;;;;;5050212;28;20055;-75
2021/06/03 10:32:06;;;;;;;9.85;7.40;;;26.60;56.80;;;;;;5049566;28;20080;-75
2021/06/03 10:34:32;;;;;;;6.85;5.68;;;26.70;56.20;;;;;;5050287;28;20048;-75
2021/06/03 10:36:59;;;;;;;7.80;6.50;;;26.80;56.30;;;;;;5050495;28;20064;-75
2021/06/03 10:39:25;;;;;;;8.57;5.93;;;26.90;55.70;;;;;;5049842;28;20056;-75
2021/06/03 10:41:52;;;;;;;8.05;6.95;;;27.00;56.10;;;;;;5050905;28;20045;-76
2021/06/03 10:44:18;;;;;;;7.10;6.30;;;27.10;55.30;;;;;;5049947;28;20137;-75
2021/06/03 10:46:44;;;;;;;7.63;6.32;;;27.10;55.00;;;;;;5050644;28;20053;-75
2021/06/03 10:49:12;;;;;;;7.32;5.13;;;27.30;54.50;;;;;;5050549;28;20053;-75
2021/06/03 10:51:40;;;;;;;7.07;5.53;;;27.30;54.40;;;;;;5049648;28;20132;-75
2021/06/03 10:54:10;;;;;;;9.57;6.50;;;27.40;54.10;;;;;;5050722;28;20057;-75
2021/06/03 10:56:35;;;;;;;7.60;5.40;;;27.50;53.50;;;;;;5050347;28;20076;-75
2021/06/03 10:59:03;;;;;;;7.82;6.38;;;27.60;53.30;;;;;;5049354;28;20053;-74
2021/06/03 11:01:31;;;;;;;8.65;5.88;;;27.60;52.90;;;;;;5049742;28;20065;-74
2021/06/03 11:04:04;;;;;;;6.90;5.55;;;27.60;52.80;;;;;;5050630;28;20543;-74
2021/06/03 11:06:41;;;;;;;7.22;5.53;;;27.60;53.00;;;;;;5049581;28;20052;-72
2021/06/03 11:09:08;;;;;;;8.32;5.28;;;27.70;52.70;;;;;;5050373;28;20493;-74
2021/06/03 11:11:40;;;;;;;8.88;4.90;;;27.70;51.50;;;;;;5052703;28;20053;-74
2021/06/03 11:14:14;;;;;;;7.53;5.13;;;27.70;51.10;;;;;;5049885;28;20048;-76
2021/06/03 11:16:40;;;;;;;6.03;4.93;;;27.90;50.80;;;;;;5048053;28;20075;-73
2021/06/03 11:19:09;;;;;;;6.47;4.75;;;28.00;51.20;;;;;;5053758;28;20136;-74
2021/06/03 11:21:38;;;;;;;6.18;4.25;;;28.10;50.80;;;;;;5052905;28;20049;-75
2021/06/03 11:24:08;;;;;;;6.15;4.32;;;28.20;50.30;;;;;;5051927;28;20052;-74
2021/06/03 11:26:37;;;;;;;11.65;4.93;;;28.30;50.10;;;;;;5052591;28;20144;-74
2021/06/03 11:29:28;;;;;;;6.57;4.60;;;28.30;50.70;;;;;;5053634;28;20049;-74
2021/06/03 11:32:00;;;;;;;7.55;5.10;;;28.50;50.60;;;;;;5057017;28;20122;-77
2021/06/03 11:34:26;;;;;;;9.82;4.10;;;28.70;49.30;;;;;;5054375;28;20460;-75
2021/06/03 11:37:00;;;;;;;6.00;4.85;;;28.80;48.80;;;;;;5054399;28;20045;-75
2021/06/03 11:39:31;;;;;;;6.45;4.63;;;28.80;48.40;;;;;;5054550;28;20087;-75
2021/06/03 11:42:25;;;;;;;6.38;4.25;;;28.70;47.30;;;;;;5054710;28;20120;-76
2021/06/03 11:45:04;;;;;;;6.40;4.78;;;28.70;48.20;;;;;;5035875;28;20448;-75
2021/06/03 11:47:53;;;;;;;6.22;4.55;;;28.80;48.10;;;;;;5053134;28;20519;-75
2021/06/03 11:50:18;;;;;;;4.90;3.97;;;28.80;48.20;;;;;;5053278;28;20048;-77
2021/06/03 11:52:53;;;;;;;7.00;5.28;;;28.80;48.80;;;;;;5054344;28;20053;-81
2021/06/03 11:55:42;;;;;;;5.45;4.88;;;28.90;48.00;;;;;;5052674;28;20075;-76
2021/06/03 11:58:10;;;;;;;6.22;4.88;;;28.90;47.90;;;;;;5053121;28;20053;-76
2021/06/03 12:00:49;;;;;;;7.10;4.68;;;28.70;49.00;;;;;;5054522;28;20045;-80
2021/06/03 12:03:27;;;;;;;7.30;5.32;;;28.50;49.20;;;;;;5055972;28;20052;-80
2021/06/03 12:05:56;;;;;;;5.70;4.70;;;28.40;49.20;;;;;;5032730;28;20045;-81
2021/06/03 12:08:57;;;;;;;6.95;5.20;;;28.30;49.80;;;;;;5051706;28;20045;-80
2021/06/03 12:11:25;;;;;;;7.97;5.63;;;28.40;49.60;;;;;;5036504;28;20521;-78
2021/06/03 12:14:04;;;;;;;6.68;5.05;;;28.40;49.60;;;;;;5050645;28;20465;-80
2021/06/03 12:16:44;;;;;;;6.53;5.03;;;28.30;49.60;;;;;;5048491;28;20504;-80
2021/06/03 12:19:16;;;;;;;6.72;4.70;;;28.20;50.00;;;;;;5049562;28;20044;-78
2021/06/03 12:21:45;;;;;;;6.55;4.72;;;28.10;49.40;;;;;;5049362;28;20104;-80
2021/06/03 12:24:11;;;;;;;6.82;5.20;;;28.00;49.30;;;;;;5049279;28;20068;-79
2021/06/03 12:26:41;;;;;;;8.57;5.05;;;28.00;49.70;;;;;;5049410;28;20434;-79
2021/06/03 12:29:23;;;;;;;6.13;4.75;;;28.00;49.70;;;;;;5049442;28;20045;-79
2021/06/03 12:31:49;;;;;;;7.50;4.75;;;28.10;49.60;;;;;;5049608;28;20045;-80
2021/06/03 12:34:20;;;;;;;6.35;4.10;;;28.30;49.20;;;;;;5050092;28;20118;-79
2021/06/03 12:36:45;;;;;;;6.50;4.13;;;28.60;47.70;;;;;;5049276;28;20049;-79
2021/06/03 12:39:11;;;;;;;4.70;3.88;;;28.70;47.70;;;;;;5053675;28;20052;-80
2021/06/03 12:41:39;;;;;;;4.45;3.70;;;28.90;47.20;;;;;;5048602;28;20680;-80
2021/06/03 12:44:10;;;;;;;6.88;3.20;;;29.00;46.30;;;;;;5054875;28;20068;-82
2021/06/03 12:47:00;;;;;;;3.97;3.28;;;29.00;45.60;;;;;;5049509;28;20164;-73
2021/06/03 12:49:30;;;;;;;4.28;3.25;;;29.00;45.80;;;;;;5028393;28;20042;-73
2021/06/03 12:51:57;;;;;;;5.22;2.97;;;29.00;45.40;;;;;;5028309;28;20049;-73